sensor_id;sensor_type;location;lat;lon;timestamp;P1;durP1;ratioP1;P2;durP2;ratioP2
34836;SDS011;21053;50.848;4.652;2023-04-10T00:00:46;14.48;;;8.15;;
34836;SDS011;21053;50.848;4.652;2023-04-10T00:03:13;18.65;;;8.23;;
34836;SDS011;21053;50.848;4.652;2023-04-10T00:08:12;17.88;;;8.52;;
34836;SDS011;21053;50.848;4.652;2023-04-10T00:10:38;14.52;;;8.20;;
34836;SDS011;21053;50.848;4.652;2023-04-10T00:13:06;14.15;;;8.98;;
34836;SDS011;21053;50.848;4.652;2023-04-10T00:15:32;15.18;;;8.20;;
34836;SDS011;21053;50.848;4.652;2023-04-10T00:17:58;21.48;;;8.35;;
34836;SDS011;21053;50.848;4.652;2023-04-10T00:20:27;21.17;;;7.95;;
34836;SDS011;21053;50.848;4.652;2023-04-10T00:22:55;14.07;;;8.05;;
34836;SDS011;21053;50.848;4.652;2023-04-10T00:25:23;13.20;;;8.18;;
34836;SDS011;21053;50.848;4.652;2023-04-10T00:30:21;12.70;;;7.30;;
34836;SDS011;21053;50.848;4.652;2023-04-10T00:32:47;16.70;;;8.18;;
34836;SDS011;21053;50.848;4.652;2023-04-10T00:35:15;10.30;;;6.82;;
34836;SDS011;21053;50.848;4.652;2023-04-10T00:40:10;15.40;;;7.88;;
34836;SDS011;21053;50.848;4.652;2023-04-10T00:42:37;13.90;;;7.80;;
34836;SDS011;21053;50.848;4.652;2023-04-10T00:45:03;15.40;;;8.32;;
34836;SDS011;21053;50.848;4.652;2023-04-10T00:47:33;12.45;;;7.18;;
34836;SDS011;21053;50.848;4.652;2023-04-10T00:50:01;11.70;;;7.25;;
34836;SDS011;21053;50.848;4.652;2023-04-10T00:52:29;13.40;;;7.60;;
34836;SDS011;21053;50.848;4.652;2023-04-10T00:54:56;12.27;;;7.50;;
34836;SDS011;21053;50.848;4.652;2023-04-10T00:57:24;17.05;;;7.22;;
34836;SDS011;21053;50.848;4.652;2023-04-10T00:59:54;12.32;;;7.22;;
34836;SDS011;21053;50.848;4.652;2023-04-10T01:02:21;14.00;;;6.80;;
34836;SDS011;21053;50.848;4.652;2023-04-10T01:04:49;10.77;;;6.28;;
34836;SDS011;21053;50.848;4.652;2023-04-10T01:15:42;13.75;;;7.20;;
34836;SDS011;21053;50.848;4.652;2023-04-10T01:29:40;13.27;;;6.15;;
34836;SDS011;21053;50.848;4.652;2023-04-10T01:32:14;11.60;;;6.47;;
34836;SDS011;21053;50.848;4.652;2023-04-10T01:34:45;10.20;;;6.45;;
34836;SDS011;21053;50.848;4.652;2023-04-10T01:37:35;9.40;;;6.15;;
34836;SDS011;21053;50.848;4.652;2023-04-10T01:40:07;14.15;;;5.70;;
34836;SDS011;21053;50.848;4.652;2023-04-10T01:42:38;11.75;;;6.30;;
34836;SDS011;21053;50.848;4.652;2023-04-10T01:45:16;11.18;;;6.78;;
34836;SDS011;21053;50.848;4.652;2023-04-10T01:47:47;9.35;;;6.07;;
34836;SDS011;21053;50.848;4.652;2023-04-10T01:50:15;12.27;;;6.38;;
34836;SDS011;21053;50.848;4.652;2023-04-10T01:55:14;11.25;;;6.75;;
34836;SDS011;21053;50.848;4.652;2023-04-10T01:57:40;12.05;;;7.22;;
34836;SDS011;21053;50.848;4.652;2023-04-10T02:00:06;11.35;;;6.80;;
34836;SDS011;21053;50.848;4.652;2023-04-10T02:02:45;11.25;;;6.75;;
34836;SDS011;21053;50.848;4.652;2023-04-10T02:05:12;15.50;;;6.75;;
34836;SDS011;21053;50.848;4.652;2023-04-10T02:12:44;10.38;;;6.68;;
34836;SDS011;21053;50.848;4.652;2023-04-10T02:15:20;10.70;;;6.82;;
34836;SDS011;21053;50.848;4.652;2023-04-10T02:17:48;12.27;;;6.70;;
34836;SDS011;21053;50.848;4.652;2023-04-10T02:22:46;10.20;;;6.60;;
34836;SDS011;21053;50.848;4.652;2023-04-10T02:25:16;11.13;;;6.63;;
34836;SDS011;21053;50.848;4.652;2023-04-10T02:33:22;11.07;;;6.88;;
34836;SDS011;21053;50.848;4.652;2023-04-10T02:35:48;11.35;;;7.15;;
34836;SDS011;21053;50.848;4.652;2023-04-10T02:38:15;13.77;;;7.00;;
34836;SDS011;21053;50.848;4.652;2023-04-10T02:40:47;11.27;;;6.93;;
34836;SDS011;21053;50.848;4.652;2023-04-10T02:43:16;13.32;;;7.35;;
34836;SDS011;21053;50.848;4.652;2023-04-10T02:45:43;11.32;;;6.68;;
34836;SDS011;21053;50.848;4.652;2023-04-10T02:48:09;14.00;;;6.68;;
34836;SDS011;21053;50.848;4.652;2023-04-10T02:50:35;11.23;;;6.63;;
34836;SDS011;21053;50.848;4.652;2023-04-10T02:55:30;12.95;;;7.53;;
34836;SDS011;21053;50.848;4.652;2023-04-10T02:57:56;13.68;;;6.68;;
34836;SDS011;21053;50.848;4.652;2023-04-10T03:00:31;14.65;;;7.22;;
34836;SDS011;21053;50.848;4.652;2023-04-10T03:02:57;10.55;;;6.72;;
34836;SDS011;21053;50.848;4.652;2023-04-10T03:05:23;10.30;;;6.25;;
34836;SDS011;21053;50.848;4.652;2023-04-10T03:07:48;11.00;;;6.70;;
34836;SDS011;21053;50.848;4.652;2023-04-10T03:10:14;13.75;;;6.43;;
34836;SDS011;21053;50.848;4.652;2023-04-10T03:12:40;11.38;;;6.78;;
34836;SDS011;21053;50.848;4.652;2023-04-10T03:17:36;12.98;;;6.63;;
34836;SDS011;21053;50.848;4.652;2023-04-10T03:20:05;12.40;;;6.60;;
34836;SDS011;21053;50.848;4.652;2023-04-10T03:22:33;11.93;;;6.13;;
34836;SDS011;21053;50.848;4.652;2023-04-10T03:24:59;11.43;;;6.15;;
34836;SDS011;21053;50.848;4.652;2023-04-10T03:27:28;10.38;;;6.57;;
34836;SDS011;21053;50.848;4.652;2023-04-10T03:29:59;12.43;;;6.72;;
34836;SDS011;21053;50.848;4.652;2023-04-10T03:34:56;16.83;;;6.53;;
34836;SDS011;21053;50.848;4.652;2023-04-10T03:37:25;9.52;;;6.07;;
34836;SDS011;21053;50.848;4.652;2023-04-10T03:42:23;10.43;;;6.10;;
34836;SDS011;21053;50.848;4.652;2023-04-10T03:47:40;10.30;;;6.28;;
34836;SDS011;21053;50.848;4.652;2023-04-10T03:52:35;12.75;;;6.55;;
34836;SDS011;21053;50.848;4.652;2023-04-10T03:55:10;16.27;;;7.03;;
34836;SDS011;21053;50.848;4.652;2023-04-10T03:57:38;11.02;;;6.57;;
34836;SDS011;21053;50.848;4.652;2023-04-10T04:00:06;10.70;;;6.55;;
34836;SDS011;21053;50.848;4.652;2023-04-10T04:02:34;10.48;;;6.55;;
34836;SDS011;21053;50.848;4.652;2023-04-10T04:07:30;9.85;;;6.28;;
34836;SDS011;21053;50.848;4.652;2023-04-10T04:09:59;11.77;;;6.80;;
34836;SDS011;21053;50.848;4.652;2023-04-10T04:12:27;10.88;;;6.32;;
34836;SDS011;21053;50.848;4.652;2023-04-10T04:17:24;11.05;;;6.80;;
34836;SDS011;21053;50.848;4.652;2023-04-10T04:19:51;10.98;;;6.35;;
34836;SDS011;21053;50.848;4.652;2023-04-10T04:22:21;10.68;;;6.18;;
34836;SDS011;21053;50.848;4.652;2023-04-10T04:27:19;12.25;;;6.90;;
34836;SDS011;21053;50.848;4.652;2023-04-10T04:29:46;9.75;;;6.65;;
34836;SDS011;21053;50.848;4.652;2023-04-10T04:32:15;10.98;;;6.70;;
34836;SDS011;21053;50.848;4.652;2023-04-10T04:37:11;13.90;;;5.78;;
34836;SDS011;21053;50.848;4.652;2023-04-10T04:42:14;12.52;;;6.50;;
34836;SDS011;21053;50.848;4.652;2023-04-10T04:44:40;11.23;;;6.65;;
34836;SDS011;21053;50.848;4.652;2023-04-10T04:47:07;12.77;;;6.40;;
34836;SDS011;21053;50.848;4.652;2023-04-10T04:49:32;14.10;;;6.85;;
34836;SDS011;21053;50.848;4.652;2023-04-10T04:51:58;10.32;;;6.45;;
34836;SDS011;21053;50.848;4.652;2023-04-10T04:54:24;14.95;;;6.78;;
34836;SDS011;21053;50.848;4.652;2023-04-10T04:56:50;10.93;;;6.20;;
34836;SDS011;21053;50.848;4.652;2023-04-10T04:59:16;11.77;;;6.53;;
34836;SDS011;21053;50.848;4.652;2023-04-10T05:01:42;13.18;;;6.63;;
34836;SDS011;21053;50.848;4.652;2023-04-10T05:04:10;12.13;;;6.13;;
34836;SDS011;21053;50.848;4.652;2023-04-10T05:06:39;11.35;;;6.57;;
34836;SDS011;21053;50.848;4.652;2023-04-10T05:09:05;9.82;;;5.57;;
34836;SDS011;21053;50.848;4.652;2023-04-10T05:11:35;10.40;;;6.03;;
34836;SDS011;21053;50.848;4.652;2023-04-10T05:14:01;9.38;;;5.70;;
34836;SDS011;21053;50.848;4.652;2023-04-10T05:16:28;10.63;;;5.90;;
34836;SDS011;21053;50.848;4.652;2023-04-10T05:18:54;10.75;;;6.40;;
34836;SDS011;21053;50.848;4.652;2023-04-10T05:21:24;11.63;;;6.40;;
34836;SDS011;21053;50.848;4.652;2023-04-10T05:23:51;10.35;;;6.80;;
34836;SDS011;21053;50.848;4.652;2023-04-10T05:28:47;7.90;;;5.40;;
34836;SDS011;21053;50.848;4.652;2023-04-10T05:31:14;10.57;;;5.80;;
34836;SDS011;21053;50.848;4.652;2023-04-10T05:33:40;11.93;;;6.00;;
34836;SDS011;21053;50.848;4.652;2023-04-10T05:36:07;12.75;;;6.28;;
34836;SDS011;21053;50.848;4.652;2023-04-10T05:38:36;10.00;;;6.25;;
34836;SDS011;21053;50.848;4.652;2023-04-10T05:41:05;9.32;;;6.28;;
34836;SDS011;21053;50.848;4.652;2023-04-10T05:43:34;9.43;;;5.97;;
34836;SDS011;21053;50.848;4.652;2023-04-10T05:48:31;12.93;;;6.70;;
34836;SDS011;21053;50.848;4.652;2023-04-10T05:50:57;14.02;;;6.40;;
34836;SDS011;21053;50.848;4.652;2023-04-10T05:53:26;9.30;;;6.15;;
34836;SDS011;21053;50.848;4.652;2023-04-10T05:55:55;15.52;;;6.30;;
34836;SDS011;21053;50.848;4.652;2023-04-10T05:58:27;14.40;;;7.13;;
34836;SDS011;21053;50.848;4.652;2023-04-10T06:00:53;11.77;;;6.38;;
34836;SDS011;21053;50.848;4.652;2023-04-10T06:03:23;9.80;;;6.20;;
34836;SDS011;21053;50.848;4.652;2023-04-10T06:05:51;10.77;;;6.25;;
34836;SDS011;21053;50.848;4.652;2023-04-10T06:08:20;10.35;;;6.40;;
34836;SDS011;21053;50.848;4.652;2023-04-10T06:10:48;9.57;;;6.03;;
34836;SDS011;21053;50.848;4.652;2023-04-10T06:13:14;10.52;;;6.10;;
34836;SDS011;21053;50.848;4.652;2023-04-10T06:15:46;10.07;;;6.20;;
34836;SDS011;21053;50.848;4.652;2023-04-10T06:18:15;16.13;;;6.25;;
34836;SDS011;21053;50.848;4.652;2023-04-10T06:20:42;14.15;;;6.97;;
34836;SDS011;21053;50.848;4.652;2023-04-10T06:23:12;9.82;;;6.22;;
34836;SDS011;21053;50.848;4.652;2023-04-10T06:28:09;11.10;;;6.25;;
34836;SDS011;21053;50.848;4.652;2023-04-10T06:30:36;9.38;;;6.38;;
34836;SDS011;21053;50.848;4.652;2023-04-10T06:33:05;12.82;;;6.50;;
34836;SDS011;21053;50.848;4.652;2023-04-10T06:37:59;8.85;;;5.72;;
34836;SDS011;21053;50.848;4.652;2023-04-10T06:40:42;10.25;;;5.97;;
34836;SDS011;21053;50.848;4.652;2023-04-10T06:43:08;8.85;;;5.65;;
34836;SDS011;21053;50.848;4.652;2023-04-10T06:45:37;11.55;;;6.40;;
34836;SDS011;21053;50.848;4.652;2023-04-10T06:48:04;10.38;;;5.88;;
34836;SDS011;21053;50.848;4.652;2023-04-10T06:50:31;10.43;;;5.75;;
34836;SDS011;21053;50.848;4.652;2023-04-10T06:52:57;13.30;;;5.90;;
34836;SDS011;21053;50.848;4.652;2023-04-10T06:55:26;10.95;;;5.50;;
34836;SDS011;21053;50.848;4.652;2023-04-10T07:00:22;8.35;;;5.07;;
34836;SDS011;21053;50.848;4.652;2023-04-10T07:02:51;12.15;;;5.20;;
34836;SDS011;21053;50.848;4.652;2023-04-10T07:05:17;8.75;;;5.50;;
34836;SDS011;21053;50.848;4.652;2023-04-10T07:07:48;9.68;;;5.70;;
34836;SDS011;21053;50.848;4.652;2023-04-10T07:12:45;10.00;;;5.38;;
34836;SDS011;21053;50.848;4.652;2023-04-10T07:15:14;9.63;;;5.57;;
34836;SDS011;21053;50.848;4.652;2023-04-10T07:17:40;9.68;;;5.60;;
34836;SDS011;21053;50.848;4.652;2023-04-10T07:20:06;12.98;;;5.80;;
34836;SDS011;21053;50.848;4.652;2023-04-10T07:22:35;9.90;;;5.35;;
34836;SDS011;21053;50.848;4.652;2023-04-10T07:25:02;9.40;;;5.78;;
34836;SDS011;21053;50.848;4.652;2023-04-10T07:27:29;9.20;;;5.47;;
34836;SDS011;21053;50.848;4.652;2023-04-10T07:29:59;8.82;;;5.40;;
34836;SDS011;21053;50.848;4.652;2023-04-10T07:32:39;12.35;;;5.82;;
34836;SDS011;21053;50.848;4.652;2023-04-10T07:35:07;10.35;;;6.55;;
34836;SDS011;21053;50.848;4.652;2023-04-10T07:37:36;12.93;;;8.00;;
34836;SDS011;21053;50.848;4.652;2023-04-10T07:40:04;6.40;;;4.65;;
34836;SDS011;21053;50.848;4.652;2023-04-10T07:42:34;9.07;;;5.53;;
34836;SDS011;21053;50.848;4.652;2023-04-10T07:45:01;8.90;;;5.10;;
34836;SDS011;21053;50.848;4.652;2023-04-10T07:47:27;12.07;;;5.85;;
34836;SDS011;21053;50.848;4.652;2023-04-10T07:49:52;7.00;;;4.88;;
34836;SDS011;21053;50.848;4.652;2023-04-10T07:52:21;6.82;;;4.88;;
34836;SDS011;21053;50.848;4.652;2023-04-10T07:54:47;7.78;;;5.13;;
34836;SDS011;21053;50.848;4.652;2023-04-10T07:57:16;9.35;;;4.63;;
34836;SDS011;21053;50.848;4.652;2023-04-10T07:59:41;12.15;;;5.07;;
34836;SDS011;21053;50.848;4.652;2023-04-10T08:02:07;7.57;;;5.10;;
34836;SDS011;21053;50.848;4.652;2023-04-10T08:04:33;7.32;;;5.03;;
34836;SDS011;21053;50.848;4.652;2023-04-10T08:06:58;9.55;;;5.53;;
34836;SDS011;21053;50.848;4.652;2023-04-10T08:09:26;8.05;;;4.90;;
34836;SDS011;21053;50.848;4.652;2023-04-10T08:11:51;8.18;;;5.00;;
34836;SDS011;21053;50.848;4.652;2023-04-10T08:14:17;8.65;;;4.60;;
34836;SDS011;21053;50.848;4.652;2023-04-10T08:16:46;11.48;;;4.68;;
34836;SDS011;21053;50.848;4.652;2023-04-10T08:19:14;7.07;;;4.57;;
34836;SDS011;21053;50.848;4.652;2023-04-10T08:21:40;8.07;;;5.05;;
34836;SDS011;21053;50.848;4.652;2023-04-10T08:24:07;6.38;;;4.75;;
34836;SDS011;21053;50.848;4.652;2023-04-10T08:26:33;8.52;;;4.60;;
34836;SDS011;21053;50.848;4.652;2023-04-10T08:29:01;7.78;;;4.85;;
34836;SDS011;21053;50.848;4.652;2023-04-10T08:31:27;7.85;;;5.05;;
34836;SDS011;21053;50.848;4.652;2023-04-10T08:33:56;7.95;;;4.80;;
34836;SDS011;21053;50.848;4.652;2023-04-10T08:36:24;10.90;;;4.93;;
34836;SDS011;21053;50.848;4.652;2023-04-10T08:38:52;11.55;;;4.90;;
34836;SDS011;21053;50.848;4.652;2023-04-10T08:43:48;7.68;;;4.68;;
34836;SDS011;21053;50.848;4.652;2023-04-10T08:46:17;8.05;;;4.80;;
34836;SDS011;21053;50.848;4.652;2023-04-10T08:49:09;10.07;;;5.18;;
34836;SDS011;21053;50.848;4.652;2023-04-10T08:51:38;9.35;;;5.55;;
34836;SDS011;21053;50.848;4.652;2023-04-10T08:54:20;8.35;;;4.95;;
34836;SDS011;21053;50.848;4.652;2023-04-10T08:56:58;7.60;;;4.80;;
34836;SDS011;21053;50.848;4.652;2023-04-10T08:59:29;19.00;;;9.23;;
34836;SDS011;21053;50.848;4.652;2023-04-10T09:02:01;7.22;;;4.50;;
34836;SDS011;21053;50.848;4.652;2023-04-10T09:04:33;8.43;;;5.00;;
34836;SDS011;21053;50.848;4.652;2023-04-10T09:07:16;14.10;;;5.45;;
34836;SDS011;21053;50.848;4.652;2023-04-10T09:12:16;15.27;;;5.40;;
34836;SDS011;21053;50.848;4.652;2023-04-10T09:14:45;8.77;;;4.75;;
34836;SDS011;21053;50.848;4.652;2023-04-10T09:17:23;8.98;;;4.95;;
34836;SDS011;21053;50.848;4.652;2023-04-10T09:19:53;8.38;;;4.10;;
34836;SDS011;21053;50.848;4.652;2023-04-10T09:22:33;18.77;;;5.30;;
34836;SDS011;21053;50.848;4.652;2023-04-10T09:25:01;7.97;;;4.78;;
34836;SDS011;21053;50.848;4.652;2023-04-10T09:27:30;8.25;;;4.30;;
34836;SDS011;21053;50.848;4.652;2023-04-10T09:32:44;9.43;;;5.10;;
34836;SDS011;21053;50.848;4.652;2023-04-10T09:35:17;9.25;;;4.80;;
34836;SDS011;21053;50.848;4.652;2023-04-10T09:40:21;7.32;;;4.47;;
34836;SDS011;21053;50.848;4.652;2023-04-10T09:42:55;6.82;;;4.38;;
34836;SDS011;21053;50.848;4.652;2023-04-10T09:48:03;6.35;;;4.15;;
34836;SDS011;21053;50.848;4.652;2023-04-10T09:50:36;10.85;;;5.32;;
34836;SDS011;21053;50.848;4.652;2023-04-10T09:53:07;14.68;;;4.95;;
34836;SDS011;21053;50.848;4.652;2023-04-10T09:55:44;8.57;;;4.22;;
34836;SDS011;21053;50.848;4.652;2023-04-10T09:58:11;7.38;;;4.95;;
34836;SDS011;21053;50.848;4.652;2023-04-10T10:00:45;5.75;;;3.88;;
34836;SDS011;21053;50.848;4.652;2023-04-10T10:03:15;6.07;;;4.30;;
34836;SDS011;21053;50.848;4.652;2023-04-10T10:05:43;4.82;;;3.72;;
34836;SDS011;21053;50.848;4.652;2023-04-10T10:08:10;12.35;;;4.72;;
34836;SDS011;21053;50.848;4.652;2023-04-10T10:10:47;6.75;;;4.38;;
34836;SDS011;21053;50.848;4.652;2023-04-10T10:13:18;11.68;;;4.20;;
34836;SDS011;21053;50.848;4.652;2023-04-10T10:15:49;7.50;;;4.28;;
34836;SDS011;21053;50.848;4.652;2023-04-10T10:21:44;9.02;;;3.88;;
34836;SDS011;21053;50.848;4.652;2023-04-10T10:24:12;10.60;;;3.78;;
34836;SDS011;21053;50.848;4.652;2023-04-10T10:26:54;6.47;;;3.97;;
34836;SDS011;21053;50.848;4.652;2023-04-10T10:29:21;4.95;;;3.20;;
34836;SDS011;21053;50.848;4.652;2023-04-10T10:31:48;5.90;;;3.38;;
34836;SDS011;21053;50.848;4.652;2023-04-10T10:34:15;5.32;;;3.38;;
34836;SDS011;21053;50.848;4.652;2023-04-10T10:47:57;4.20;;;3.03;;
34836;SDS011;21053;50.848;4.652;2023-04-10T10:50:25;9.45;;;3.17;;
34836;SDS011;21053;50.848;4.652;2023-04-10T10:53:42;3.15;;;2.65;;
34836;SDS011;21053;50.848;4.652;2023-04-10T10:58:54;4.25;;;3.10;;
34836;SDS011;21053;50.848;4.652;2023-04-10T11:03:51;5.00;;;3.13;;
34836;SDS011;21053;50.848;4.652;2023-04-10T11:06:17;4.20;;;2.95;;
34836;SDS011;21053;50.848;4.652;2023-04-10T11:08:48;3.40;;;2.63;;
34836;SDS011;21053;50.848;4.652;2023-04-10T11:11:30;6.78;;;3.05;;
34836;SDS011;21053;50.848;4.652;2023-04-10T11:32:01;4.35;;;2.75;;
34836;SDS011;21053;50.848;4.652;2023-04-10T11:34:29;3.30;;;2.80;;
34836;SDS011;21053;50.848;4.652;2023-04-10T11:36:58;3.95;;;2.80;;
34836;SDS011;21053;50.848;4.652;2023-04-10T11:39:27;5.43;;;3.03;;
34836;SDS011;21053;50.848;4.652;2023-04-10T11:41:57;4.82;;;2.65;;
34836;SDS011;21053;50.848;4.652;2023-04-10T11:44:34;8.60;;;3.30;;
34836;SDS011;21053;50.848;4.652;2023-04-10T11:47:04;5.30;;;2.58;;
34836;SDS011;21053;50.848;4.652;2023-04-10T11:51:59;7.03;;;2.55;;
34836;SDS011;21053;50.848;4.652;2023-04-10T12:05:23;3.50;;;2.17;;
34836;SDS011;21053;50.848;4.652;2023-04-10T12:07:52;5.20;;;2.90;;
34836;SDS011;21053;50.848;4.652;2023-04-10T12:10:22;5.35;;;2.70;;
34836;SDS011;21053;50.848;4.652;2023-04-10T12:15:25;3.38;;;2.20;;
34836;SDS011;21053;50.848;4.652;2023-04-10T12:17:54;3.20;;;2.30;;
34836;SDS011;21053;50.848;4.652;2023-04-10T12:20:20;8.75;;;2.47;;
34836;SDS011;21053;50.848;4.652;2023-04-10T12:22:52;5.90;;;2.25;;
34836;SDS011;21053;50.848;4.652;2023-04-10T12:25:34;3.00;;;2.40;;
34836;SDS011;21053;50.848;4.652;2023-04-10T12:28:03;3.13;;;2.00;;
34836;SDS011;21053;50.848;4.652;2023-04-10T12:30:29;2.75;;;2.00;;
34836;SDS011;21053;50.848;4.652;2023-04-10T12:35:52;8.93;;;2.25;;
34836;SDS011;21053;50.848;4.652;2023-04-10T12:38:36;3.95;;;2.10;;
34836;SDS011;21053;50.848;4.652;2023-04-10T12:41:12;6.35;;;2.20;;
34836;SDS011;21053;50.848;4.652;2023-04-10T12:46:58;2.67;;;1.80;;
34836;SDS011;21053;50.848;4.652;2023-04-10T12:49:25;4.63;;;2.22;;
34836;SDS011;21053;50.848;4.652;2023-04-10T12:54:31;4.22;;;2.00;;
34836;SDS011;21053;50.848;4.652;2023-04-10T12:57:01;3.03;;;2.08;;
34836;SDS011;21053;50.848;4.652;2023-04-10T12:59:30;2.90;;;1.90;;
34836;SDS011;21053;50.848;4.652;2023-04-10T13:01:56;3.55;;;1.98;;
34836;SDS011;21053;50.848;4.652;2023-04-10T13:04:22;3.35;;;2.25;;
34836;SDS011;21053;50.848;4.652;2023-04-10T13:06:49;4.07;;;2.08;;
34836;SDS011;21053;50.848;4.652;2023-04-10T13:09:16;3.00;;;1.98;;
34836;SDS011;21053;50.848;4.652;2023-04-10T13:11:44;2.70;;;1.90;;
34836;SDS011;21053;50.848;4.652;2023-04-10T13:16:39;5.35;;;2.00;;
34836;SDS011;21053;50.848;4.652;2023-04-10T13:19:06;5.57;;;2.30;;
34836;SDS011;21053;50.848;4.652;2023-04-10T13:21:31;8.38;;;1.92;;
34836;SDS011;21053;50.848;4.652;2023-04-10T13:26:27;3.88;;;2.10;;
34836;SDS011;21053;50.848;4.652;2023-04-10T13:28:52;3.33;;;1.98;;
34836;SDS011;21053;50.848;4.652;2023-04-10T13:31:19;4.55;;;2.22;;
34836;SDS011;21053;50.848;4.652;2023-04-10T13:33:45;3.78;;;2.00;;
34836;SDS011;21053;50.848;4.652;2023-04-10T13:36:18;2.20;;;1.83;;
34836;SDS011;21053;50.848;4.652;2023-04-10T13:38:43;12.05;;;1.73;;
34836;SDS011;21053;50.848;4.652;2023-04-10T13:41:12;2.80;;;1.67;;
34836;SDS011;21053;50.848;4.652;2023-04-10T13:43:43;2.78;;;1.70;;
34836;SDS011;21053;50.848;4.652;2023-04-10T13:49:04;3.92;;;1.90;;
34836;SDS011;21053;50.848;4.652;2023-04-10T13:51:36;5.15;;;2.10;;
34836;SDS011;21053;50.848;4.652;2023-04-10T13:54:02;4.35;;;1.90;;
34836;SDS011;21053;50.848;4.652;2023-04-10T13:56:30;4.10;;;2.13;;
34836;SDS011;21053;50.848;4.652;2023-04-10T13:58:58;7.15;;;1.90;;
34836;SDS011;21053;50.848;4.652;2023-04-10T14:01:25;5.95;;;2.20;;
34836;SDS011;21053;50.848;4.652;2023-04-10T14:03:51;4.22;;;2.47;;
34836;SDS011;21053;50.848;4.652;2023-04-10T14:06:33;3.67;;;2.30;;
34836;SDS011;21053;50.848;4.652;2023-04-10T14:08:59;5.32;;;2.03;;
34836;SDS011;21053;50.848;4.652;2023-04-10T14:11:25;5.53;;;2.25;;
34836;SDS011;21053;50.848;4.652;2023-04-10T14:16:27;7.03;;;3.50;;
34836;SDS011;21053;50.848;4.652;2023-04-10T14:21:23;2.63;;;2.10;;
34836;SDS011;21053;50.848;4.652;2023-04-10T14:26:17;2.33;;;2.13;;
34836;SDS011;21053;50.848;4.652;2023-04-10T14:28:46;4.05;;;2.10;;
34836;SDS011;21053;50.848;4.652;2023-04-10T14:31:15;4.63;;;2.00;;
34836;SDS011;21053;50.848;4.652;2023-04-10T14:33:41;8.02;;;2.15;;
34836;SDS011;21053;50.848;4.652;2023-04-10T14:36:08;3.33;;;1.77;;
34836;SDS011;21053;50.848;4.652;2023-04-10T14:38:37;7.35;;;2.40;;
34836;SDS011;21053;50.848;4.652;2023-04-10T14:41:06;3.30;;;2.00;;
34836;SDS011;21053;50.848;4.652;2023-04-10T14:43:36;3.53;;;1.88;;
34836;SDS011;21053;50.848;4.652;2023-04-10T14:46:03;2.30;;;1.90;;
34836;SDS011;21053;50.848;4.652;2023-04-10T14:48:28;2.78;;;2.03;;
34836;SDS011;21053;50.848;4.652;2023-04-10T14:53:26;2.95;;;2.05;;
34836;SDS011;21053;50.848;4.652;2023-04-10T14:55:58;2.17;;;1.73;;
34836;SDS011;21053;50.848;4.652;2023-04-10T14:58:26;2.75;;;1.85;;
34836;SDS011;21053;50.848;4.652;2023-04-10T15:00:52;3.88;;;2.05;;
34836;SDS011;21053;50.848;4.652;2023-04-10T15:03:20;3.38;;;1.80;;
34836;SDS011;21053;50.848;4.652;2023-04-10T15:06:00;5.63;;;2.20;;
34836;SDS011;21053;50.848;4.652;2023-04-10T15:08:30;5.95;;;2.20;;
34836;SDS011;21053;50.848;4.652;2023-04-10T15:10:56;4.32;;;2.00;;
34836;SDS011;21053;50.848;4.652;2023-04-10T15:13:25;7.03;;;2.35;;
34836;SDS011;21053;50.848;4.652;2023-04-10T15:15:53;2.70;;;2.00;;
34836;SDS011;21053;50.848;4.652;2023-04-10T15:18:22;5.82;;;2.30;;
34836;SDS011;21053;50.848;4.652;2023-04-10T15:25:48;8.88;;;2.03;;
34836;SDS011;21053;50.848;4.652;2023-04-10T15:28:18;6.40;;;2.20;;
34836;SDS011;21053;50.848;4.652;2023-04-10T15:30:54;5.63;;;1.73;;
34836;SDS011;21053;50.848;4.652;2023-04-10T15:35:50;9.48;;;2.50;;
34836;SDS011;21053;50.848;4.652;2023-04-10T15:38:16;7.10;;;2.42;;
34836;SDS011;21053;50.848;4.652;2023-04-10T15:40:45;8.55;;;2.40;;
34836;SDS011;21053;50.848;4.652;2023-04-10T15:43:13;6.47;;;2.25;;
34836;SDS011;21053;50.848;4.652;2023-04-10T15:45:43;4.57;;;2.70;;
34836;SDS011;21053;50.848;4.652;2023-04-10T15:48:16;4.20;;;2.53;;
34836;SDS011;21053;50.848;4.652;2023-04-10T15:50:42;4.60;;;2.58;;
34836;SDS011;21053;50.848;4.652;2023-04-10T15:53:14;4.88;;;2.60;;
34836;SDS011;21053;50.848;4.652;2023-04-10T15:55:43;5.28;;;2.63;;
34836;SDS011;21053;50.848;4.652;2023-04-10T15:58:11;3.75;;;2.47;;
34836;SDS011;21053;50.848;4.652;2023-04-10T16:00:40;3.38;;;2.50;;
34836;SDS011;21053;50.848;4.652;2023-04-10T16:03:06;3.88;;;2.80;;
34836;SDS011;21053;50.848;4.652;2023-04-10T16:05:32;3.70;;;2.80;;
34836;SDS011;21053;50.848;4.652;2023-04-10T16:10:30;3.85;;;2.80;;
34836;SDS011;21053;50.848;4.652;2023-04-10T16:13:06;4.82;;;3.08;;
34836;SDS011;21053;50.848;4.652;2023-04-10T16:15:34;4.82;;;3.47;;
34836;SDS011;21053;50.848;4.652;2023-04-10T16:18:04;7.18;;;3.50;;
34836;SDS011;21053;50.848;4.652;2023-04-10T16:20:34;5.95;;;3.67;;
34836;SDS011;21053;50.848;4.652;2023-04-10T16:25:30;8.70;;;4.15;;
34836;SDS011;21053;50.848;4.652;2023-04-10T16:27:59;9.82;;;3.85;;
34836;SDS011;21053;50.848;4.652;2023-04-10T16:30:29;10.68;;;4.28;;
34836;SDS011;21053;50.848;4.652;2023-04-10T16:35:26;11.38;;;4.18;;
34836;SDS011;21053;50.848;4.652;2023-04-10T16:37:54;9.35;;;5.18;;
34836;SDS011;21053;50.848;4.652;2023-04-10T16:40:23;6.82;;;4.78;;
34836;SDS011;21053;50.848;4.652;2023-04-10T16:42:59;7.72;;;5.28;;
34836;SDS011;21053;50.848;4.652;2023-04-10T16:45:26;12.60;;;5.00;;
34836;SDS011;21053;50.848;4.652;2023-04-10T16:47:52;10.93;;;5.55;;
34836;SDS011;21053;50.848;4.652;2023-04-10T16:50:21;9.93;;;5.35;;
34836;SDS011;21053;50.848;4.652;2023-04-10T16:52:50;11.52;;;5.60;;
34836;SDS011;21053;50.848;4.652;2023-04-10T16:55:20;9.63;;;5.05;;
34836;SDS011;21053;50.848;4.652;2023-04-10T16:57:48;9.55;;;4.97;;
34836;SDS011;21053;50.848;4.652;2023-04-10T17:00:17;8.77;;;4.93;;
34836;SDS011;21053;50.848;4.652;2023-04-10T17:02:44;12.73;;;5.25;;
34836;SDS011;21053;50.848;4.652;2023-04-10T17:05:13;10.20;;;4.85;;
34836;SDS011;21053;50.848;4.652;2023-04-10T17:07:42;8.63;;;4.95;;
34836;SDS011;21053;50.848;4.652;2023-04-10T17:10:13;8.70;;;4.75;;
34836;SDS011;21053;50.848;4.652;2023-04-10T17:12:42;7.78;;;3.97;;
34836;SDS011;21053;50.848;4.652;2023-04-10T17:15:14;5.50;;;3.95;;
34836;SDS011;21053;50.848;4.652;2023-04-10T17:17:41;7.75;;;3.85;;
34836;SDS011;21053;50.848;4.652;2023-04-10T17:20:07;10.02;;;4.38;;
34836;SDS011;21053;50.848;4.652;2023-04-10T17:25:04;10.50;;;3.90;;
34836;SDS011;21053;50.848;4.652;2023-04-10T17:27:33;6.45;;;3.88;;
34836;SDS011;21053;50.848;4.652;2023-04-10T17:32:35;5.57;;;2.95;;
34836;SDS011;21053;50.848;4.652;2023-04-10T17:35:02;6.53;;;2.83;;
34836;SDS011;21053;50.848;4.652;2023-04-10T17:37:30;5.40;;;3.28;;
34836;SDS011;21053;50.848;4.652;2023-04-10T17:39:59;5.20;;;3.00;;
34836;SDS011;21053;50.848;4.652;2023-04-10T17:42:25;5.80;;;2.90;;
34836;SDS011;21053;50.848;4.652;2023-04-10T17:44:52;4.35;;;2.50;;
34836;SDS011;21053;50.848;4.652;2023-04-10T17:47:21;9.60;;;2.80;;
34836;SDS011;21053;50.848;4.652;2023-04-10T17:49:47;3.50;;;2.20;;
34836;SDS011;21053;50.848;4.652;2023-04-10T17:52:13;4.07;;;2.05;;
34836;SDS011;21053;50.848;4.652;2023-04-10T17:54:39;3.90;;;1.98;;
34836;SDS011;21053;50.848;4.652;2023-04-10T17:57:05;4.10;;;2.28;;
34836;SDS011;21053;50.848;4.652;2023-04-10T17:59:31;3.40;;;1.98;;
34836;SDS011;21053;50.848;4.652;2023-04-10T18:01:57;2.90;;;1.98;;
34836;SDS011;21053;50.848;4.652;2023-04-10T18:06:55;3.97;;;2.33;;
34836;SDS011;21053;50.848;4.652;2023-04-10T18:11:53;6.97;;;2.40;;
34836;SDS011;21053;50.848;4.652;2023-04-10T18:14:20;3.58;;;2.30;;
34836;SDS011;21053;50.848;4.652;2023-04-10T18:16:49;5.72;;;2.60;;